• Join FlightAware (Why Join?)
  • Login
  • US Flag 
05:11AM EST


 

Airport Tracker/Info


-or-


 

Live Flight TrackerFlight Track Log ✈ USC105 ✈ 23-Apr-2013 ✈ KYIP - KDPA

Flight Track Log - Related Links

Times and Time Zones

All times are in EDT time to prevent confusion due to time zone crossing. See the USC105 flight status page for this flight to view local times or setup timezone preferences in your user account.

Time Position Orientation Groundspeed Altitude Reporting Facility
EDT Latitude Longitude Course Direction KTS MPH feet Rate Location/Type
12:16AM 42.2369 -83.6067 259° West 131 151 2,200  Level Cleveland Center
12:17AM 42.2397 -83.6600 274° West 135 155 3,000 660 Climbing Cleveland Center
12:19AM 42.2383 -83.7106 268° West 129 148 3,700 600 Climbing Cleveland Center
12:20AM 42.2350 -83.7581 265° West 125 144 4,300 600 Climbing Cleveland Center
12:22AM 42.2281 -83.8847 266° West 146 168 5,800 480 Climbing Chicago Center
12:23AM 42.2289 -83.9364 271° West 140 161 6,000  Climbing Chicago Center
12:24AM 42.2269 -83.9956 267° West 147 169 5,900  Descending Chicago Center
12:25AM 42.2217 -84.0536 263° West 153 176 6,100 60 Climbing Chicago Center
12:26AM 42.2164 -84.1147 263° West 158 182 6,100  Level Chicago Center
12:27AM 42.2100 -84.1769 262° West 163 188 6,100 -60 Level Chicago Center
12:28AM 42.2083 -84.2383 268° West 164 189 6,000 -60 Descending Chicago Center
12:29AM 42.2050 -84.2994 266° West 164 189 6,000  Level Chicago Center
12:30AM 42.1997 -84.3633 264° West 169 194 6,000  Level Chicago Center
12:31AM 42.1958 -84.4253 265° West 169 194 6,000  Level Chicago Center
12:32AM 42.1922 -84.4869 266° West 166 191 6,000  Level Chicago Center
12:33AM 42.1886 -84.5472 265° West 168 193 6,000  Level Chicago Center
12:34AM 42.1844 -84.6100 265° West 169 194 6,000  Level Chicago Center
12:35AM 42.1806 -84.6717 265° West 167 192 6,000  Level Chicago Center
12:36AM 42.1761 -84.7333 264° West 167 192 6,000  Level Chicago Center
12:37AM 42.1731 -84.7964 266° West 169 194 6,000  Level Chicago Center
12:38AM 42.1686 -84.8594 265° West 170 196 6,000  Level Chicago Center
12:39AM 42.1653 -84.9211 266° West 167 192 6,000  Level Chicago Center
12:40AM 42.1606 -84.9956 265° West 166 191 6,000  Level Chicago Center
12:41AM 42.1569 -85.0600 266° West 172 198 6,100  Climbing Chicago Center
12:42AM 42.1539 -85.1228 266° West 170 196 6,100  Level Chicago Center
12:43AM 42.1503 -85.1844 266° West 168 193 6,100  Level Chicago Center
12:44AM 42.1458 -85.2456 264° West 166 191 6,100  Level Chicago Center
12:45AM 42.1411 -85.3072 264° West 167 192 6,100  Level Chicago Center
12:46AM 42.1369 -85.3686 265° West 167 192 6,100  Level Chicago Center
12:47AM 42.1322 -85.4286 264° West 164 189 6,100  Level Chicago Center
12:48AM 42.1281 -85.4878 265° West 161 185 6,100  Level Chicago Center
12:49AM 42.1233 -85.5486 264° West 162 186 6,100  Level Chicago Center
12:50AM 42.1197 -85.6111 266° West 166 191 6,100  Level Chicago Center
12:51AM 42.1150 -85.6728 264° West 167 192 6,100  Level Chicago Center
12:52AM 42.1106 -85.7344 264° West 167 192 6,100  Level Chicago Center
12:53AM 42.1058 -85.7972 264° West 168 193 6,100  Level Chicago Center
12:54AM 42.1017 -85.8625 265° West 173 199 6,100  Level Chicago Center
12:55AM 42.0967 -85.9261 264° West 173 199 6,100  Level Chicago Center
12:56AM 42.0925 -85.9886 265° West 171 197 6,100  Level Chicago Center
12:57AM 42.0883 -86.0517 265° West 169 194 6,100  Level Chicago Center
12:58AM 42.0831 -86.1150 264° West 170 196 6,100  Level Chicago Center
12:59AM 42.0792 -86.1775 265° West 169 194 6,100  Level Chicago Center
01:00AM 42.0739 -86.2411 264° West 171 197 6,100  Level Chicago Center
01:01AM 42.0692 -86.3044 264° West 171 197 6,100  Level Chicago Center
01:02AM 42.0644 -86.3678 264° West 171 197 6,100  Level Chicago Center
01:03AM 42.0592 -86.4300 264° West 169 194 6,100  Level Chicago Center
01:04AM 42.0544 -86.5050 265° West 168 193 6,100  Level Chicago Center
01:05AM 42.0494 -86.5650 264° West 165 190 6,100  Level Chicago Center
01:06AM 42.0447 -86.6261 264° West 164 189 6,100  Level Chicago Center
01:07AM 42.0403 -86.6864 264° West 163 188 6,100  Level Chicago Center
01:08AM 42.0367 -86.7386 265° West 161 185 6,100  Level Chicago Center
01:09AM 42.0317 -86.7986 264° West 162 186 6,100 -60 Level Chicago Center
01:10AM 42.0267 -86.8575 263° West 160 184 6,000 -60 Descending Chicago Center
01:11AM 42.0225 -86.9219 265° West 172 198 6,000  Level Chicago Center
01:12AM 42.0161 -86.9836 262° West 168 193 6,000  Level Chicago Center
01:13AM 42.0106 -87.0481 263° West 173 199 6,000  Level Chicago Center
01:14AM 42.0061 -87.1117 265° West 172 198 6,000  Level Chicago Center
01:15AM 41.9994 -87.1878 263° West 172 198 6,000 -60 Level Chicago Center
01:16AM 41.9947 -87.2514 264° West 171 197 5,900  Descending Chicago Center
01:17AM 41.9894 -87.3133 263° West 168 193 6,000  Climbing Chicago Center
01:18AM 41.9833 -87.3767 263° West 171 197 6,000  Level Chicago Center
01:19AM 41.9833 -87.4167 270° West 171 197 6,000  Level Chicago TRACON
01:20AM 41.9667 -87.4833 251° West 171 197 6,000  Level Chicago TRACON
01:21AM 41.9667 -87.5333 270° West 173 199 6,000  Level Chicago TRACON
01:22AM 41.9667 -87.6000 270° West 176 203 6,000  Level Chicago TRACON
01:23AM 41.9500 -87.6667 251° West 174 200 6,000 -60 Level Chicago TRACON
01:24AM 41.9500 -87.7333 270° West 180 207 5,900  Descending Chicago TRACON
01:25AM 41.9333 -87.8000 251° West 181 208 6,000  Climbing Chicago TRACON
01:26AM 41.9000 -87.8500 228° Southwest 182 209 6,000 -300 Level Chicago TRACON
01:27AM 41.8833 -87.9167 251° West 197 227 5,500 -600 Descending Chicago TRACON
01:28AM 41.8500 -87.9833 236° Southwest 199 229 4,900 -600 Descending Chicago TRACON
01:28AM 41.8467 -88.0019 256° West 191 220 4,700 -420 Descending Chicago Center
01:29AM 41.8183 -88.0644 239° Southwest 196 226 4,300 -540 Descending Chicago Center
01:30AM 41.7917 -88.1281 241° Southwest 196 226 3,700 -600 Descending Chicago Center
01:31AM 41.7664 -88.1919 242° Southwest 197 227 3,200 -540 Descending Chicago Center
01:32AM 41.7469 -88.2544 247° West 194 223 2,700 -360 Descending Chicago Center
01:33AM 41.7778 -88.2794 329° Northwest 162 186 2,500 -120 Descending Chicago Center
01:34AM 41.8136 -88.2825 356° North 141 162 2,500 -360 Level Chicago Center
01:35AM 41.8442 -88.2703 17° North 125 144 1,800 -660 Descending Chicago Center
01:36AM 41.8733 -88.2603 14° North 116 133 1,200 -480 Descending Chicago Center
01:37AM 41.9086 -88.2483 14° North 114 131 900 -300 Descending Chicago Center